createdAt,value
2022-12-03T00:02:19.663Z,-2.5
2022-12-03T00:07:26.220Z,-2.5
2022-12-03T00:12:32.795Z,-2.5
2022-12-03T00:17:39.436Z,-2.6
2022-12-03T00:22:45.946Z,-2.6
2022-12-03T00:27:52.571Z,-2.6
2022-12-03T00:32:59.133Z,-2.7
2022-12-03T00:38:05.671Z,-2.6
2022-12-03T00:43:12.254Z,-2.7
2022-12-03T00:48:18.863Z,-2.7
2022-12-03T00:53:25.399Z,-2.7
2022-12-03T00:58:31.971Z,-2.7
2022-12-03T01:03:38.544Z,-2.7
2022-12-03T01:08:44.410Z,-2.7
2022-12-03T01:13:50.976Z,-2.7
2022-12-03T01:18:57.553Z,-2.7
2022-12-03T01:24:04.129Z,-2.7
2022-12-03T01:29:10.697Z,-2.7
2022-12-03T01:34:17.271Z,-2.7
2022-12-03T01:39:23.853Z,-2.7
2022-12-03T01:44:30.432Z,-2.7
2022-12-03T01:49:37.017Z,-2.7
2022-12-03T01:54:43.576Z,-2.7
2022-12-03T01:59:50.157Z,-2.8
2022-12-03T02:04:56.757Z,-2.8
2022-12-03T02:10:03.351Z,-2.8
2022-12-03T02:15:09.184Z,-2.8
2022-12-03T02:20:15.742Z,-2.8
2022-12-03T02:25:22.341Z,-2.8
2022-12-03T02:30:28.869Z,-2.8
2022-12-03T02:35:35.497Z,-2.8
2022-12-03T02:40:42.030Z,-2.8
2022-12-03T02:45:48.633Z,-2.8
2022-12-03T02:50:55.192Z,-2.8
2022-12-03T02:56:01.767Z,-2.8
2022-12-03T03:01:08.523Z,-2.8
2022-12-03T03:06:14.903Z,-2.8
2022-12-03T03:11:21.489Z,-2.8
2022-12-03T03:16:28.151Z,-2.8
2022-12-03T03:21:33.908Z,-2.8
2022-12-03T03:26:40.477Z,-2.8
2022-12-03T03:31:47.054Z,-2.8
2022-12-03T03:36:53.722Z,-2.8
2022-12-03T03:42:00.226Z,-2.9
2022-12-03T03:47:06.769Z,-2.9
2022-12-03T03:52:13.375Z,-2.9
2022-12-03T03:57:19.936Z,-2.9
2022-12-03T04:02:26.538Z,-2.9
2022-12-03T04:07:33.098Z,-2.9
2022-12-03T04:12:39.688Z,-2.9
2022-12-03T04:17:46.230Z,-2.9
2022-12-03T04:22:52.846Z,-2.9
2022-12-03T04:27:58.659Z,-2.9
2022-12-03T04:33:05.232Z,-2.9
2022-12-03T04:38:11.803Z,-2.9
2022-12-03T04:43:18.385Z,-2.9
2022-12-03T04:48:24.970Z,-2.9
2022-12-03T04:53:31.552Z,-2.9
2022-12-03T04:58:38.099Z,-2.9
2022-12-03T05:03:44.717Z,-2.9
2022-12-03T05:08:51.345Z,-3
2022-12-03T05:13:57.874Z,-3
2022-12-03T05:19:04.448Z,-3
2022-12-03T05:24:11.039Z,-3
2022-12-03T05:29:17.607Z,-3
2022-12-03T05:34:23.468Z,-3
2022-12-03T05:39:30.004Z,-3
2022-12-03T05:44:36.637Z,-3
2022-12-03T05:49:43.162Z,-3
2022-12-03T05:54:49.766Z,-3.1
2022-12-03T05:59:56.312Z,-3.1
2022-12-03T06:05:02.891Z,-3.1
2022-12-03T06:10:09.474Z,-3.1
2022-12-03T06:15:16.064Z,-3.1
2022-12-03T06:20:22.619Z,-3.1
2022-12-03T06:25:29.199Z,-3.1
2022-12-03T06:30:35.766Z,-3.1
2022-12-03T06:40:48.975Z,-3.1
2022-12-03T06:45:54.937Z,-3.1
2022-12-03T06:51:01.324Z,-3.1
2022-12-03T06:56:07.912Z,-3.1
2022-12-03T07:01:14.500Z,-3.1
2022-12-03T07:06:20.481Z,-3.1
2022-12-03T07:11:26.915Z,-3.1
2022-12-03T07:16:33.515Z,-3.1
2022-12-03T07:21:40.107Z,-3.1
2022-12-03T07:26:46.680Z,-3.1
2022-12-03T07:31:53.250Z,-3
2022-12-03T07:36:59.782Z,-3
2022-12-03T07:42:06.428Z,-3
2022-12-03T07:47:13.006Z,-2.9
2022-12-03T07:52:19.548Z,-2.8
2022-12-03T07:57:26.090Z,-2.8
2022-12-03T08:02:32.705Z,-2.7
2022-12-03T08:07:39.354Z,-2.7
2022-12-03T08:12:45.215Z,-2.7
2022-12-03T08:17:51.658Z,-2.6
2022-12-03T08:22:58.288Z,-2.4
2022-12-03T08:28:04.813Z,-2.5
2022-12-03T08:33:11.387Z,-2.6
2022-12-03T08:38:17.952Z,-2.6
2022-12-03T08:43:24.636Z,-2.7
2022-12-03T08:48:31.138Z,-2.6
2022-12-03T08:53:37.688Z,-2.7
2022-12-03T08:58:44.265Z,-2.6
2022-12-03T09:03:50.830Z,-2.6
2022-12-03T09:08:57.444Z,-2.5
2022-12-03T09:14:04.010Z,-2.5
2022-12-03T09:19:09.925Z,-2.4
2022-12-03T09:24:16.408Z,-2.4
2022-12-03T09:29:23.182Z,-2.4
2022-12-03T09:34:29.655Z,-2.3
2022-12-03T09:39:36.291Z,-2.2
2022-12-03T09:44:42.795Z,-2.4
2022-12-03T09:49:49.330Z,-2.3
2022-12-03T09:54:55.872Z,-2.2
2022-12-03T10:00:02.447Z,-2.3
2022-12-03T10:05:09.003Z,-2.2
2022-12-03T10:10:15.590Z,-2.3
2022-12-03T10:15:22.155Z,-2.2
2022-12-03T10:20:28.728Z,-2.1
2022-12-03T10:25:34.569Z,-2
2022-12-03T10:30:41.145Z,-2
2022-12-03T10:35:47.729Z,-1.9
2022-12-03T10:40:54.298Z,-1.9
2022-12-03T10:46:00.898Z,-1.9
2022-12-03T10:51:07.460Z,-2
2022-12-03T10:56:14.034Z,-2
2022-12-03T11:01:20.614Z,-2
2022-12-03T11:06:27.193Z,-2
2022-12-03T11:11:33.753Z,-2
2022-12-03T11:16:40.325Z,-2
2022-12-03T11:21:46.895Z,-2.1
2022-12-03T11:26:53.481Z,-2.1
2022-12-03T11:31:59.331Z,-1.9
2022-12-03T11:37:05.904Z,-1.9
2022-12-03T11:42:12.479Z,-1.8
2022-12-03T11:47:19.061Z,-1.5
2022-12-03T11:52:25.624Z,-1.6
2022-12-03T11:57:32.192Z,-1.8
2022-12-03T12:02:38.776Z,-1.9
2022-12-03T12:07:45.360Z,-2
2022-12-03T12:12:51.921Z,-2
2022-12-03T12:17:58.499Z,-1.9
2022-12-03T12:23:05.075Z,-1.8
2022-12-03T12:28:11.647Z,-1.9
2022-12-03T12:33:18.303Z,-1.9
2022-12-03T12:38:24.857Z,-1.9
2022-12-03T12:43:30.735Z,-1.9
2022-12-03T12:48:37.288Z,-1.9
2022-12-03T12:53:43.863Z,-2
2022-12-03T12:58:50.435Z,-2
2022-12-03T13:03:57.066Z,-2
2022-12-03T13:09:03.598Z,-2
2022-12-03T13:14:10.167Z,-1.8
2022-12-03T13:19:16.751Z,-1.8
2022-12-03T13:24:23.307Z,-1.8
2022-12-03T13:29:29.890Z,-2
2022-12-03T13:34:36.465Z,-2
2022-12-03T13:39:43.173Z,-2
2022-12-03T13:44:49.795Z,-2.1
2022-12-03T13:49:55.632Z,-2.1
2022-12-03T13:55:02.159Z,-2.1
2022-12-03T14:00:08.744Z,-2.2
2022-12-03T14:05:15.373Z,-2.2
2022-12-03T14:10:21.848Z,-2.2
2022-12-03T14:15:28.532Z,-2.1
2022-12-03T14:20:35.070Z,-2.1
2022-12-03T14:25:41.487Z,-2
2022-12-03T14:30:48.108Z,-2.1
2022-12-03T14:35:54.627Z,-2.1
2022-12-03T14:41:01.226Z,-2.2
2022-12-03T14:46:07.814Z,-2.2
2022-12-03T14:51:14.432Z,-2.3
2022-12-03T14:56:20.302Z,-2.3
2022-12-03T15:01:26.776Z,-2.2
2022-12-03T15:06:33.360Z,-2.2
2022-12-03T15:11:39.940Z,-2.2
2022-12-03T15:16:46.561Z,-2.3
2022-12-03T15:21:53.293Z,-2.3
2022-12-03T15:26:59.653Z,-2.3
2022-12-03T15:32:06.425Z,-2.3
2022-12-03T15:37:12.990Z,-2.3
2022-12-03T15:42:19.552Z,-2.3
2022-12-03T15:47:26.161Z,-2.3
2022-12-03T15:52:32.648Z,-2.3
2022-12-03T15:57:39.268Z,-2.3
2022-12-03T16:02:45.026Z,-2.3
2022-12-03T16:07:51.619Z,-2.3
2022-12-03T16:12:58.225Z,-2.3
2022-12-03T16:18:04.872Z,-2.3
2022-12-03T16:23:11.433Z,-2.3
2022-12-03T16:28:17.981Z,-2.3
2022-12-03T16:33:24.566Z,-2.3
2022-12-03T16:38:31.010Z,-2.3
2022-12-03T16:43:37.711Z,-2.3
2022-12-03T16:48:44.183Z,-2.3
2022-12-03T16:53:50.717Z,-2.3
2022-12-03T16:58:57.433Z,-2.3
2022-12-03T17:04:04.052Z,-2.3
2022-12-03T17:09:10.648Z,-2.3
2022-12-03T17:14:16.485Z,-2.3
2022-12-03T17:19:22.860Z,-2.3
2022-12-03T17:24:29.645Z,-2.3
2022-12-03T17:29:36.234Z,-2.3
2022-12-03T17:34:42.722Z,-2.2
2022-12-03T17:39:49.325Z,-2.2
2022-12-03T17:44:55.762Z,-2.2
2022-12-03T17:50:02.408Z,-2.2
2022-12-03T17:55:08.953Z,-2.2
2022-12-03T18:00:15.464Z,-2.2
2022-12-03T18:05:22.134Z,-2.2
2022-12-03T18:10:28.729Z,-2.2
2022-12-03T18:15:35.271Z,-2.2
2022-12-03T18:20:41.159Z,-2.2
2022-12-03T18:25:47.767Z,-2.2
2022-12-03T18:30:54.206Z,-2.2
2022-12-03T18:36:00.781Z,-2.1
2022-12-03T18:41:07.465Z,-2.1
2022-12-03T18:46:14.001Z,-2.1
2022-12-03T18:51:20.636Z,-2.1
2022-12-03T18:56:27.095Z,-2.1
2022-12-03T19:01:33.690Z,-2.1
2022-12-03T19:06:40.446Z,-2.1
2022-12-03T19:11:46.945Z,-2.1
2022-12-03T19:16:53.515Z,-2.1
2022-12-03T19:22:00.136Z,-2.1
2022-12-03T19:27:05.947Z,-2.1
2022-12-03T19:32:12.497Z,-2.1
2022-12-03T19:37:19.095Z,-2.1
2022-12-03T19:42:25.631Z,-2.1
2022-12-03T19:47:32.136Z,-2.1
2022-12-03T19:52:38.837Z,-2.1
2022-12-03T19:57:45.297Z,-2
2022-12-03T20:02:51.959Z,-2.1
2022-12-03T20:07:58.437Z,-2
2022-12-03T20:13:05.023Z,-2
2022-12-03T20:18:11.591Z,-2
2022-12-03T20:23:18.223Z,-2
2022-12-03T20:28:24.744Z,-2
2022-12-03T20:33:30.643Z,-2
2022-12-03T20:38:37.159Z,-2
2022-12-03T20:43:43.868Z,-2
2022-12-03T20:48:50.436Z,-2
2022-12-03T20:53:56.907Z,-2
2022-12-03T20:59:03.500Z,-2
2022-12-03T21:04:10.098Z,-1.9
2022-12-03T21:09:16.739Z,-1.9
2022-12-03T21:14:23.215Z,-1.9
2022-12-03T21:19:29.828Z,-1.9
2022-12-03T21:24:36.412Z,-1.9
2022-12-03T21:29:42.953Z,-1.9
2022-12-03T21:34:49.635Z,-1.9
2022-12-03T21:39:55.388Z,-1.9
2022-12-03T21:45:01.923Z,-1.8
2022-12-03T21:50:08.528Z,-1.8
2022-12-03T21:55:15.159Z,-1.8
2022-12-03T22:00:21.649Z,-1.8
2022-12-03T22:05:28.323Z,-1.8
2022-12-03T22:10:34.966Z,-1.8
2022-12-03T22:15:41.505Z,-1.8
2022-12-03T22:20:47.965Z,-1.8
2022-12-03T22:25:54.515Z,-1.8
2022-12-03T22:31:01.113Z,-1.8
2022-12-03T22:36:07.718Z,-1.7
2022-12-03T22:41:14.243Z,-1.7
2022-12-03T22:46:20.266Z,-1.7
2022-12-03T22:51:26.773Z,-1.7
2022-12-03T22:56:33.335Z,-1.7
2022-12-03T23:01:39.971Z,-1.7
2022-12-03T23:06:46.462Z,-1.7
2022-12-03T23:11:52.982Z,-1.6
2022-12-03T23:16:59.548Z,-1.6
2022-12-03T23:22:06.247Z,-1.6
2022-12-03T23:27:12.750Z,-1.6
2022-12-03T23:32:19.309Z,-1.6
2022-12-03T23:37:25.853Z,-1.6
2022-12-03T23:42:32.422Z,-1.6
2022-12-03T23:47:39.018Z,-1.6
2022-12-03T23:52:45.575Z,-1.6
2022-12-03T23:57:52.150Z,-1.6
